Tuesday, September 30, 2014
22:03 UTC
  |  Log In   |  Register Free
Airport Search:

Oroville Municipal Airport
(KOVE)

Oroville Municipal Airport Diagram
No Airport Diagram Available

FAA data valid effective September 18, 2014 - November 13, 2014 (unless otherwise noted).

 
 
 
 
 
 
 
 
 
 
 
 
 
 

Current Aviation Weather for Oroville Municipal Airport (KOVE)

The most recent METAR observation for KOVE was updated at: 2114
METAR Summary (Translated METAR)
KOVE
302053Z AUTO VRB04KT 10SM CLR 27/12 A2990 RMK AO2 SLP126 T02670117 58019
KCIC
302054Z 30012G15 40SM FEW080 FEW150 27/12 A2989
(21.4 nm NW from KOVE)
KBAB
302058Z AUTO 32010KT 9SM CLR 27/13 A2987 RMK AO2 PK WND 22061/11 DZB2053 SLP189 P0000 60000 T02680130 57021 $
(22.8 nm SE from KOVE)
TAF Summary (Translated TAF)
KBAB
(22.8 nm SE from KOVE)
3021/0201 33009KT 9999 SKC QNH2980INS BECMG 0115/0116 30015G25KT 9999 SKC QNH2985INS BECMG 0122/0123 33009KT 9999 SKC QNH2983INS TX27/3023Z TN13/0112Z AMD 302114
  Airport Weather Conditions for KOVE

 Current Weather at OVE
80° F
Fair
Variable winds at 4.6 mph
OVE NOAA Radar

Pressure: 29.90 in
Humidity: 39%
Wind: Variable at 4.6 MPH (4 KT)
Dew Point: 53.1°F
Visibility: 10.00 mi


Airport Weather Forecast for KOVE

Translated METAR and TAF for KOVE
Translated METAR for KOVE (2157 UTC 30 September 2014)
found at http://aviationweather.gov/adds/metars/
 
METAR text: KOVE 302153Z AUTO 32005KT 10SM CLR 27/12 A2987 RMK AO2 SLP114 T02720117
Conditions at: KOVE (OROVILLE , CA, US) observed 2153 UTC 30 September 2014
Temperature: 27.2°C (81°F)
Dewpoint: 11.7°C (53°F) [RH = 38%]
Pressure (altimeter): 29.87 inches Hg (1011.6 mb)
[Sea-level pressure: 1011.4 mb]
Winds: from the NW (320 degrees) at 6 MPH (5 knots; 2.6 m/s)
Visibility: 10 or more miles (16+ km)
Ceiling: at least 12,000 feet AGL
Clouds: sky clear below 12,000 feet AGL
Weather: automated observation with no human augmentation;
there may or may not be significant weather present at this time
Translated TAF for KOVE

There is no translated TAF available for this airport

Find All Airport Services Find A Hotel Find A Rental Car Find A Golf Course Find A Restaurant $100 Hamburger



FBO's on the Field
FBO Company Facility Photos Services Transportation Aviation Fuel Prices: Prices include tax
Catering Weather Repair Courtesy Rental Type 100LL JetA JetA+ MOGAS 8087
 
Oroville Municipal Airport

This FBO has not yet been rated
FS:Epic
Last Updated: Sep-17
Login to update fuel prices
SS:
Contact Oroville Municipal AirportMore FBO Information
 
Add another FBO Facility Photos Catering Weather Repair Courtesy Rental Type 100LL JetA JetA+ MOGAS 8087
Services Transportation Aviation Fuel Prices: Prices include tax


model-print
model-print
model-print
model-print